KNQI

Kingsville Nas Airport

Kingsville, Texas, USA
METAR KNQI 151856Z 17008KT 10SM BKN250 28/17 A2975 RMK AO2 SLP069 T02830167 $
Observed Flight Rules
Feb-15 @ 18:56 UTC (16 minutes ago) Visual Flight Rules
Wind Visibility Clouds
170° at 8 knots 10 miles
  • Broken at 25,000' AGL
Temperatures Readings
Current 28°C / 82°F
Dewpoint 17°C / 63°F
Humidity 51%
Altimeter 29.75" Hg
Pressure 1006.9 hPa
Elevation 15
METAR KNQI 151856Z 17008KT 10SM BKN250 28/17 A2975 RMK AO2 SLP069 T02830167 $
Observed Flight Rules
Feb-15 @ 18:56 UTC
(16 minutes ago)
VFR
Wind Visibility
170° at 8 knots 10 miles
Clouds
  • Broken at 25,000' AGL
Temperature Dewpoint
28°C / 82°F 17°C / 63°F
Humidity Altimeter Pressure
51% 29.75" Hg 1006.9 hPa